createdAt,value
2023-03-05T00:00:07.769Z,168.90
2023-03-05T00:03:19.920Z,112.86
2023-03-05T00:06:30.336Z,106.80
2023-03-05T00:09:36.958Z,110.31
2023-03-05T00:12:42.819Z,129.70
2023-03-05T00:15:52.332Z,137.75
2023-03-05T00:19:01.062Z,158.43
2023-03-05T00:22:08.637Z,165.37
2023-03-05T00:25:14.677Z,147.50
2023-03-05T00:28:21.711Z,128.80
2023-03-05T00:31:34.220Z,121.42
2023-03-05T00:34:41.311Z,113.79
2023-03-05T00:37:47.158Z,114.81
2023-03-05T00:40:54.753Z,109.42
2023-03-05T00:44:00.507Z,119.34
2023-03-05T00:47:10.140Z,132.93
2023-03-05T00:50:16.033Z,168.77
2023-03-05T00:53:23.010Z,174.37
2023-03-05T00:56:31.067Z,140.23
2023-03-05T00:59:37.652Z,147.27
2023-03-05T01:02:46.457Z,150.13
2023-03-05T01:05:56.130Z,144.10
2023-03-05T01:09:02.110Z,150.76
2023-03-05T01:12:09.893Z,150.93
2023-03-05T01:15:15.803Z,151.08
2023-03-05T01:18:25.575Z,135.46
2023-03-05T01:21:31.400Z,140.60
2023-03-05T01:24:38.010Z,137.46
2023-03-05T01:27:44.156Z,145.10
2023-03-05T01:30:50.870Z,159.78
2023-03-05T01:34:00.424Z,283.10
2023-03-05T01:37:07.680Z,295.02
2023-03-05T01:40:17.151Z,223.19
2023-03-05T01:43:30.826Z,178.94
2023-03-05T01:46:39.517Z,274.00
2023-03-05T01:49:49.705Z,247.84
2023-03-05T01:53:03.275Z,176.41
2023-03-05T01:56:10.629Z,172.51
2023-03-05T01:59:19.674Z,224.82
2023-03-05T02:02:27.630Z,241.56
2023-03-05T02:05:39.289Z,235.90
2023-03-05T02:08:46.007Z,193.23
2023-03-05T02:11:52.147Z,189.32
2023-03-05T02:14:59.609Z,202.36
2023-03-05T02:18:06.036Z,209.16
2023-03-05T02:21:15.716Z,223.03
2023-03-05T02:24:37.674Z,198.60
2023-03-05T02:27:47.884Z,204.46
2023-03-05T02:30:54.250Z,194.77
2023-03-05T02:34:00.979Z,178.93
2023-03-05T02:37:10.822Z,182.29
2023-03-05T02:40:19.793Z,184.25
2023-03-05T02:43:25.726Z,179.21
2023-03-05T02:46:33.158Z,174.13
2023-03-05T02:49:39.260Z,178.59
2023-03-05T02:52:48.545Z,188.76
2023-03-05T02:55:56.761Z,177.72
2023-03-05T02:59:03.887Z,174.05
2023-03-05T03:02:10.717Z,176.38
2023-03-05T03:05:16.585Z,182.59
2023-03-05T03:08:28.095Z,174.15
2023-03-05T03:11:34.341Z,181.71
2023-03-05T03:14:44.867Z,190.67
2023-03-05T03:17:50.942Z,201.17
2023-03-05T03:20:58.146Z,223.85
2023-03-05T03:24:07.467Z,234.17
2023-03-05T03:27:14.771Z,224.23
2023-03-05T03:30:21.058Z,220.35
2023-03-05T03:33:27.871Z,195.64
2023-03-05T03:36:33.809Z,211.74
2023-03-05T03:39:43.225Z,190.44
2023-03-05T03:42:49.199Z,165.00
2023-03-05T03:45:56.164Z,157.44
2023-03-05T03:49:02.009Z,164.60
2023-03-05T03:52:10.035Z,144.93
2023-03-05T03:55:18.474Z,150.71
2023-03-05T03:58:25.018Z,167.44
2023-03-05T04:01:30.847Z,163.51
2023-03-05T04:04:37.559Z,157.81
2023-03-05T04:07:45.594Z,144.69
2023-03-05T04:10:54.828Z,130.41
2023-03-05T04:14:00.890Z,117.15
2023-03-05T04:17:07.590Z,114.75
2023-03-05T04:20:19.214Z,123.25
2023-03-05T04:23:28.294Z,129.11
2023-03-05T04:26:36.886Z,126.98
2023-03-05T04:29:43.584Z,106.84
2023-03-05T04:32:49.287Z,109.96
2023-03-05T04:35:56.115Z,102.70
2023-03-05T04:39:02.054Z,101.79
2023-03-05T04:42:11.486Z,93.53
2023-03-05T04:45:17.627Z,96.71
2023-03-05T04:48:27.662Z,91.01
2023-03-05T04:51:33.559Z,99.30
2023-03-05T04:54:40.190Z,146.09
2023-03-05T04:57:48.820Z,131.48
2023-03-05T05:00:55.495Z,125.54
2023-03-05T05:04:01.358Z,164.18
2023-03-05T05:07:10.483Z,195.02
2023-03-05T05:10:17.920Z,204.34
2023-03-05T05:13:27.195Z,110.08
2023-03-05T05:16:33.384Z,93.38
2023-03-05T05:19:40.044Z,94.80
2023-03-05T05:22:46.233Z,112.66
2023-03-05T05:26:01.562Z,127.76
2023-03-05T05:29:12.130Z,138.94
2023-03-05T05:32:19.154Z,165.07
2023-03-05T05:35:25.088Z,239.23
2023-03-05T05:38:31.877Z,226.59
2023-03-05T05:41:37.738Z,180.02
2023-03-05T05:44:48.835Z,137.83
2023-03-05T05:47:54.611Z,126.32
2023-03-05T05:51:01.940Z,122.70
2023-03-05T05:54:08.192Z,144.59
2023-03-05T05:57:14.885Z,132.44
2023-03-05T06:00:27.042Z,125.88
2023-03-05T06:03:33.932Z,158.14
2023-03-05T06:06:39.740Z,140.57
2023-03-05T06:09:46.592Z,202.97
2023-03-05T06:12:52.313Z,135.61
2023-03-05T06:16:04.560Z,141.47
2023-03-05T06:19:17.436Z,177.61
2023-03-05T06:22:24.182Z,131.17
2023-03-05T06:25:30.079Z,131.56
2023-03-05T06:28:38.553Z,142.52
2023-03-05T06:31:47.309Z,135.41
2023-03-05T06:34:54.093Z,126.84
2023-03-05T06:37:59.964Z,105.95
2023-03-05T06:41:12.160Z,104.20
2023-03-05T06:44:18.264Z,111.14
2023-03-05T06:47:27.530Z,121.01
2023-03-05T06:50:33.551Z,130.79
2023-03-05T06:53:40.151Z,149.49
2023-03-05T06:56:49.215Z,129.10
2023-03-05T06:59:55.802Z,138.17
2023-03-05T07:03:04.259Z,166.55
2023-03-05T07:06:13.213Z,191.73
2023-03-05T07:09:20.136Z,203.35
2023-03-05T07:12:26.793Z,207.66
2023-03-05T07:15:32.582Z,217.81
2023-03-05T07:18:41.909Z,252.67
2023-03-05T07:21:47.655Z,203.91
2023-03-05T07:24:54.204Z,173.72
2023-03-05T07:28:00.643Z,181.98
2023-03-05T07:31:11.673Z,188.92
2023-03-05T07:34:20.145Z,198.77
2023-03-05T07:37:26.718Z,205.64
2023-03-05T07:40:32.472Z,223.98
2023-03-05T07:43:39.716Z,243.69
2023-03-05T07:46:46.509Z,274.71
2023-03-05T07:49:55.911Z,278.64
2023-03-05T07:53:01.777Z,283.61
2023-03-05T07:56:10.292Z,284.49
2023-03-05T07:59:16.740Z,293.37
2023-03-05T08:02:23.397Z,303.37
2023-03-05T08:05:31.826Z,285.59
2023-03-05T08:08:39.115Z,259.28
2023-03-05T08:11:45.304Z,242.80
2023-03-05T08:14:52.188Z,241.29
2023-03-05T08:17:57.893Z,229.21
2023-03-05T08:21:07.911Z,234.65
2023-03-05T08:24:16.044Z,218.41
2023-03-05T08:27:22.631Z,211.61
2023-03-05T08:30:28.660Z,197.89
2023-03-05T08:33:35.506Z,180.38
2023-03-05T08:36:43.870Z,180.12
2023-03-05T08:39:50.485Z,182.38
2023-03-05T08:42:56.335Z,198.90
2023-03-05T08:46:05.249Z,300.29
2023-03-05T08:49:11.460Z,217.91
2023-03-05T08:52:20.632Z,258.50
2023-03-05T08:55:26.510Z,204.76
2023-03-05T08:58:33.375Z,203.95
2023-03-05T09:01:39.392Z,241.35
2023-03-05T09:04:46.080Z,267.23
2023-03-05T09:07:54.576Z,197.08
2023-03-05T09:11:01.474Z,188.63
2023-03-05T09:14:07.633Z,186.02
2023-03-05T09:17:14.238Z,201.84
2023-03-05T09:20:20.585Z,202.28
2023-03-05T09:23:29.888Z,228.01
2023-03-05T09:26:35.945Z,246.12
2023-03-05T09:29:43.259Z,219.95
2023-03-05T09:32:51.177Z,191.34
2023-03-05T09:35:58.254Z,220.62
2023-03-05T09:39:10.504Z,223.70
2023-03-05T09:43:05.198Z,216.89
2023-03-05T09:46:36.259Z,222.18
2023-03-05T09:50:01.310Z,218.79
2023-03-05T09:53:22.862Z,165.22
2023-03-05T09:56:39.499Z,170.92
2023-03-05T09:59:56.336Z,195.89
2023-03-05T10:03:14.080Z,190.53
2023-03-05T10:06:27.998Z,166.72
2023-03-05T10:09:52.612Z,168.55
2023-03-05T10:13:14.715Z,157.63
2023-03-05T10:17:06.170Z,175.99
2023-03-05T10:20:37.265Z,177.05
2023-03-05T10:24:19.675Z,172.54
2023-03-05T10:27:45.929Z,133.99
2023-03-05T10:31:25.067Z,132.14
2023-03-05T10:34:57.682Z,132.86
2023-03-05T10:38:57.165Z,99.14
2023-03-05T10:42:17.888Z,100.10
2023-03-05T10:45:32.467Z,112.59
2023-03-05T10:48:52.775Z,125.37
2023-03-05T10:52:10.115Z,114.17
2023-03-05T10:55:19.544Z,407.93
2023-03-05T10:58:28.335Z,413.29
2023-03-05T11:01:34.647Z,114.42
2023-03-05T11:04:45.044Z,139.97
2023-03-05T11:07:50.865Z,389.42
2023-03-05T11:11:18.563Z,656.23
2023-03-05T11:14:36.353Z,355.43
2023-03-05T11:17:48.015Z,880.71
2023-03-05T11:21:13.951Z,820.04
2023-03-05T11:24:22.709Z,537.81
2023-03-05T11:27:39.738Z,188.14
2023-03-05T11:30:57.133Z,87.50
2023-03-05T11:34:08.165Z,88.10
2023-03-05T11:37:28.667Z,337.94
2023-03-05T11:40:37.884Z,159.03
2023-03-05T11:43:47.753Z,97.27
2023-03-05T11:47:00.241Z,114.68
2023-03-05T11:50:26.424Z,526.32
2023-03-05T11:53:39.597Z,1715.80
2023-03-05T11:56:49.585Z,2719.21
2023-03-05T12:00:02.084Z,2117.00
2023-03-05T12:03:19.326Z,3183.53
2023-03-05T12:06:40.956Z,2843.19
2023-03-05T12:09:55.871Z,1031.46
2023-03-05T12:13:18.147Z,1386.44
2023-03-05T12:16:44.019Z,958.52
2023-03-05T12:20:08.053Z,504.65
2023-03-05T12:23:20.801Z,941.48
2023-03-05T12:27:00.184Z,124.15
2023-03-05T12:30:09.003Z,74.74
2023-03-05T12:33:39.455Z,79.92
2023-03-05T12:36:46.467Z,64.25
2023-03-05T12:40:04.510Z,250.82
2023-03-05T12:43:36.291Z,209.04
2023-03-05T12:46:43.879Z,287.51
2023-03-05T12:49:51.542Z,186.33
2023-03-05T12:52:59.169Z,146.97
2023-03-05T12:56:20.100Z,126.12
2023-03-05T12:59:41.784Z,115.57
2023-03-05T13:02:55.941Z,145.08
2023-03-05T13:06:05.743Z,174.80
2023-03-05T13:09:21.959Z,123.09
2023-03-05T13:12:32.741Z,294.80
2023-03-05T13:15:42.720Z,381.73
2023-03-05T13:18:52.729Z,456.67
2023-03-05T13:22:05.339Z,490.43
2023-03-05T13:25:20.710Z,239.91
2023-03-05T13:28:28.298Z,99.27
2023-03-05T13:31:39.580Z,90.50
2023-03-05T13:34:49.933Z,106.48
2023-03-05T13:37:55.945Z,155.53
2023-03-05T13:41:22.671Z,321.93
2023-03-05T13:44:29.725Z,66.74
2023-03-05T13:47:39.874Z,68.38
2023-03-05T13:50:45.691Z,59.08
2023-03-05T13:53:53.256Z,66.12
2023-03-05T13:57:02.451Z,50.48
2023-03-05T14:00:29.879Z,76.36
2023-03-05T14:03:38.377Z,117.11
2023-03-05T14:06:51.381Z,124.40
2023-03-05T14:09:57.638Z,115.99
2023-03-05T14:13:09.351Z,115.88
2023-03-05T14:16:26.332Z,87.83
2023-03-05T14:19:44.455Z,88.28
2023-03-05T14:22:51.695Z,66.95
2023-03-05T14:26:30.701Z,73.53
2023-03-05T14:29:37.621Z,71.16
2023-03-05T14:32:49.044Z,72.65
2023-03-05T14:35:59.768Z,70.50
2023-03-05T14:39:06.410Z,96.21
2023-03-05T14:42:38.989Z,154.77
2023-03-05T14:45:48.098Z,124.45
2023-03-05T14:48:54.522Z,147.09
2023-03-05T14:52:03.776Z,153.07
2023-03-05T14:55:13.653Z,94.42
2023-03-05T14:58:26.190Z,108.12
2023-03-05T15:01:32.113Z,102.92
2023-03-05T15:04:40.701Z,73.93
2023-03-05T15:07:51.454Z,97.05
2023-03-05T15:10:59.245Z,101.46
2023-03-05T15:14:05.070Z,102.78
2023-03-05T15:17:21.589Z,171.85
2023-03-05T15:20:32.326Z,119.13
2023-03-05T15:23:41.562Z,135.04
2023-03-05T15:26:49.283Z,113.49
2023-03-05T15:29:56.880Z,120.83
2023-03-05T15:33:06.591Z,170.34
2023-03-05T15:36:13.787Z,115.34
2023-03-05T15:39:24.788Z,101.89
2023-03-05T15:42:31.467Z,83.46
2023-03-05T15:45:37.385Z,83.33
2023-03-05T15:48:50.054Z,85.93
2023-03-05T15:51:57.053Z,109.61
2023-03-05T15:55:07.905Z,116.20
2023-03-05T15:58:19.270Z,93.84
2023-03-05T16:01:26.331Z,88.83
2023-03-05T16:04:32.911Z,206.29
2023-03-05T16:07:48.615Z,131.22
2023-03-05T16:10:57.746Z,107.08
2023-03-05T16:14:11.311Z,105.93
2023-03-05T16:17:18.990Z,107.66
2023-03-05T16:20:26.688Z,123.08
2023-03-05T16:23:33.661Z,148.79
2023-03-05T16:26:44.433Z,107.47
2023-03-05T16:29:51.272Z,148.97
2023-03-05T16:32:58.078Z,124.57
2023-03-05T16:36:27.300Z,115.72
2023-03-05T16:39:34.279Z,101.83
2023-03-05T16:42:43.650Z,84.92
2023-03-05T16:45:50.408Z,101.71
2023-03-05T16:48:56.650Z,135.72
2023-03-05T16:52:17.759Z,132.07
2023-03-05T16:55:24.356Z,113.38
2023-03-05T16:58:34.233Z,107.57
2023-03-05T17:01:40.075Z,121.15
2023-03-05T17:04:47.205Z,109.26
2023-03-05T17:07:54.714Z,104.09
2023-03-05T17:11:02.176Z,109.70
2023-03-05T17:14:10.661Z,120.75
2023-03-05T17:17:17.960Z,222.87
2023-03-05T17:20:23.774Z,219.61
2023-03-05T17:23:31.418Z,132.23
2023-03-05T17:26:38.437Z,139.83
2023-03-05T17:29:47.720Z,215.88
2023-03-05T17:32:58.306Z,248.02
2023-03-05T17:36:05.733Z,235.98
2023-03-05T17:39:12.497Z,164.87
2023-03-05T17:42:20.656Z,187.65
2023-03-05T17:45:30.041Z,203.47
2023-03-05T17:48:39.576Z,174.03
2023-03-05T17:51:45.684Z,140.33
2023-03-05T17:54:53.281Z,145.19
2023-03-05T17:57:59.972Z,179.71
2023-03-05T18:01:10.728Z,155.55
2023-03-05T18:04:17.331Z,153.97
2023-03-05T18:07:24.041Z,183.05
2023-03-05T18:10:31.232Z,180.28
2023-03-05T18:13:38.524Z,284.67
2023-03-05T18:16:50.990Z,614.30
2023-03-05T18:20:00.236Z,269.07
2023-03-05T18:23:09.703Z,528.91
2023-03-05T18:26:18.929Z,685.97
2023-03-05T18:29:25.900Z,994.91
2023-03-05T18:32:39.624Z,823.08
2023-03-05T18:35:45.535Z,1431.08
2023-03-05T18:38:54.729Z,910.43
2023-03-05T18:42:00.738Z,1146.93
2023-03-05T18:45:11.104Z,859.52
2023-03-05T18:48:19.713Z,930.14
2023-03-05T18:51:29.414Z,843.68
2023-03-05T18:54:35.423Z,834.76
2023-03-05T18:57:42.312Z,748.66
2023-03-05T19:00:49.522Z,728.65
2023-03-05T19:03:59.104Z,677.42
2023-03-05T19:07:05.453Z,404.72
2023-03-05T19:10:15.148Z,365.21
2023-03-05T19:13:43.861Z,424.06
2023-03-05T19:16:50.418Z,374.38
2023-03-05T19:20:00.917Z,320.84
2023-03-05T19:23:17.944Z,386.61
2023-03-05T19:26:23.749Z,857.99
2023-03-05T19:29:34.538Z,830.63
2023-03-05T19:32:40.808Z,587.08
2023-03-05T19:35:50.132Z,323.89
2023-03-05T19:38:56.068Z,261.02
2023-03-05T19:42:03.584Z,377.43
2023-03-05T19:45:14.118Z,225.44
2023-03-05T19:48:20.751Z,204.89
2023-03-05T19:51:31.256Z,171.38
2023-03-05T19:54:38.395Z,164.53
2023-03-05T19:57:44.393Z,163.89
2023-03-05T20:00:51.271Z,180.27
2023-03-05T20:04:00.363Z,201.22
2023-03-05T20:07:10.619Z,277.48
2023-03-05T20:10:19.784Z,261.95
2023-03-05T20:13:28.104Z,221.59
2023-03-05T20:16:39.247Z,184.30
2023-03-05T20:19:45.873Z,207.97
2023-03-05T20:22:54.648Z,213.20
2023-03-05T20:26:02.425Z,173.82
2023-03-05T20:29:08.788Z,214.32
2023-03-05T20:32:15.524Z,276.78
2023-03-05T20:35:22.046Z,463.30
2023-03-05T20:38:33.162Z,324.80
2023-03-05T20:41:42.221Z,313.71
2023-03-05T20:44:49.037Z,303.43
2023-03-05T20:47:54.923Z,376.66
2023-03-05T20:51:13.096Z,436.00
2023-03-05T20:54:24.128Z,350.37
2023-03-05T20:57:31.071Z,346.04
2023-03-05T21:00:37.289Z,408.59
2023-03-05T21:03:44.350Z,250.36
2023-03-05T21:06:55.479Z,236.15
2023-03-05T21:10:04.965Z,349.82
2023-03-05T21:13:10.928Z,263.99
2023-03-05T21:16:21.422Z,256.57
2023-03-05T21:19:27.275Z,218.00
2023-03-05T21:22:33.879Z,195.69
2023-03-05T21:25:42.306Z,186.37
2023-03-05T21:28:48.980Z,200.93
2023-03-05T21:31:55.156Z,220.09
2023-03-05T21:35:01.824Z,246.67
2023-03-05T21:38:09.975Z,212.50
2023-03-05T21:41:20.686Z,179.70
2023-03-05T21:44:26.583Z,197.51
2023-03-05T21:47:33.161Z,215.05
2023-03-05T21:50:43.465Z,208.19
2023-03-05T21:53:50.276Z,239.50
2023-03-05T21:56:58.795Z,227.76
2023-03-05T22:00:08.413Z,196.51
2023-03-05T22:03:17.652Z,181.06
2023-03-05T22:06:25.277Z,199.79
2023-03-05T22:09:31.092Z,212.51
2023-03-05T22:13:17.955Z,238.33
2023-03-05T22:16:25.883Z,199.12
2023-03-05T22:19:33.103Z,176.66
2023-03-05T22:22:38.963Z,180.99
2023-03-05T22:25:46.855Z,186.54
2023-03-05T22:28:56.003Z,192.16
2023-03-05T22:32:02.644Z,205.64
2023-03-05T22:35:15.498Z,230.11
2023-03-05T22:38:22.623Z,286.42
2023-03-05T22:41:28.532Z,438.39
2023-03-05T22:44:37.860Z,321.50
2023-03-05T22:47:43.952Z,259.00
2023-03-05T22:50:59.272Z,276.13
2023-03-05T22:54:05.305Z,360.26
2023-03-05T22:57:12.298Z,378.71
2023-03-05T23:00:24.399Z,451.83
2023-03-05T23:03:31.215Z,339.05
2023-03-05T23:06:37.152Z,334.97
2023-03-05T23:09:44.148Z,361.13
2023-03-05T23:12:53.633Z,415.74
2023-03-05T23:16:02.834Z,374.57
2023-03-05T23:19:08.675Z,339.94
2023-03-05T23:22:17.228Z,485.12
2023-03-05T23:25:23.793Z,325.93
2023-03-05T23:28:30.554Z,253.50
2023-03-05T23:31:38.982Z,273.77
2023-03-05T23:34:45.749Z,212.75
2023-03-05T23:37:52.688Z,282.69
2023-03-05T23:41:03.741Z,460.37
2023-03-05T23:44:09.680Z,371.54
2023-03-05T23:47:18.942Z,401.60
2023-03-05T23:50:28.637Z,312.07
2023-03-05T23:53:35.159Z,356.33
2023-03-05T23:56:41.159Z,493.71
2023-03-05T23:59:47.766Z,513.01
